Flight Track Log - Related Links

Times and Time Zones

All times are in EDT time to prevent confusion due to time zone crossing. See the BJS439 flight status page for this flight to view local times or setup timezone preferences in your user account.

Time Position Orientation Groundspeed Altitude Reporting Facility
EDT Latitude Longitude Course Direction KTS MPH feet Rate Location/Type
Wed 07:59:23 AM 36.8658 -76.2331 247° West 164 189 1,600  Level Washington Center
Wed 08:00:24 AM 36.8489 -76.2822 247° West 170 196 3,600 2,329 Climbing Washington Center
Wed 08:01:55 AM 36.8586 -76.3681 278° West 203 234 7,500 2,901 Climbing Washington Center
Wed 08:02:55 AM 36.8978 -76.4308 308° West 211 243 10,900 4,000 Climbing Washington Center
Wed 08:03:55 AM 36.9453 -76.5042 309° West 239 275 15,500 2,550 Climbing Washington Center
Wed 08:04:55 AM 37.0050 -76.5983 308° West 292 336 16,000 250 Climbing Washington Center
Wed 08:05:55 AM 37.0647 -76.6956 308° West 339 390 16,000  Level Washington Center
Wed 08:06:55 AM 37.1244 -76.7900 308° West 350 403 16,000  Level Washington Center
Wed 08:07:55 AM 37.1839 -76.8850 308° West 350 403 16,000  Level Washington Center
Wed 08:08:55 AM 37.2472 -76.9903 307° West 350 403 16,000  Level Washington Center
Wed 08:09:55 AM 37.3006 -77.0747 308° West 350 403 16,000  Level Washington Center
Wed 08:10:55 AM 37.3661 -77.1622 313° West 345 397 16,000  Level Washington Center
Wed 08:11:55 AM 37.4422 -77.2503 317° Northwest 340 391 16,000 -250 Level Washington Center
Wed 08:12:55 AM 37.5100 -77.3328 316° Northwest 340 391 15,500 -1,000 Descending Washington Center
Wed 08:13:55 AM 37.5669 -77.4258 308° West 328 377 14,000 -1,600 Descending Washington Center
Wed 08:14:55 AM 37.6219 -77.5164 307° West 328 377 12,300 -1,600 Descending Washington Center
Wed 08:15:55 AM 37.6767 -77.6017 309° West 328 377 10,800 -1,636 Descending Washington Center
Wed 08:16:56 AM 37.7214 -77.6736 308° West 306 352 9,000 -1,400 Descending Washington Center
Wed 08:17:55 AM 37.7681 -77.7486 308° West 286 329 8,000 -500 Descending Washington Center
Wed 08:18:56 AM 37.8125 -77.8208 308° West 274 315 8,000  Level Washington Center
Wed 08:19:55 AM 37.8572 -77.8958 307° West 268 308 8,000 -98 Level Washington Center
Wed 08:21:00 AM 37.9013 -77.9687 310° West  Level FlightAware Approximate
Wed 08:22:00 AM 37.9667 -78.0667 310° West 280 322 7,700  Level Potomac TRACON
Wed 08:22:55 AM 37.9983 -78.1267 304° West 273 314 8,000 -1,096 Climbing Washington Center
Wed 08:23:55 AM 38.0508 -78.2103 309° West 273 314 5,600 -1,655 Descending Washington Center
Wed 08:25:49 AM 38.1333 -78.3500 307° West 233 268 3,200 -1,333 Descending Potomac TRACON
Wed 08:26:37 AM 38.1500 -78.3833 302° West 193 222 2,000 -947 Descending Potomac TRACON
Wed 08:27:43 AM 38.1667 -78.4333 293° West 134 154 1,400 -545 Descending Potomac TRACON
Wed 08:29:00 AM 38.1333 -78.4500 302° West  Level FlightAware Approximate
Wed 08:36:00 AM 38.1386 -78.4529 302° West  Level Estimated
Wed 08:37:00 AM 38.1333 -78.4500 302° West  Level FlightAware Approximate
Wed 08:38:00 AM 38.1386 -78.4529 302° West  Level Estimated
Wed 08:39:00 AM 38.1333 -78.4500 302° West  Level FlightAware Approximate

Login

Don't have an account? Register now (free) for customized features, flight alerts, and more!